Time;durP1;ratioP1;P1;durP2;ratioP2;P2;SDS_P1;SDS_P2;PMS_P1;PMS_P2;Temp;Humidity;BMP_temperature;BMP_pressure;BME280_temperature;BME280_humidity;BME280_pressure;Samples;Min_cycle;Max_cycle;Signal;HPM_P1;HPM_P2
2021/10/17 00:00:35;;;;;;;17.73;7.90;;;;;;;9.19;71.60;100377.47;5132076;28;20046;-63
2021/10/17 00:03:19;;;;;;;13.75;7.43;;;;;;;9.19;71.40;100374.91;5116438;28;20131;-63
2021/10/17 00:06:06;;;;;;;18.30;8.13;;;;;;;9.20;71.53;100372.34;5116199;28;20513;-63
2021/10/17 00:08:50;;;;;;;15.45;7.78;;;;;;;9.17;71.66;100372.28;5131270;28;20113;-63
2021/10/17 00:11:34;;;;;;;;;;;;;;;9.16;71.38;100364.47;5131978;28;20123;-63
2021/10/17 00:14:20;;;;;;;17.08;8.07;;;;;;;9.14;71.64;100370.47;5115824;28;19922;-63
2021/10/17 00:17:08;;;;;;;17.25;6.50;;;;;;;9.16;71.59;100367.03;5131740;28;20513;-64
2021/10/17 00:19:52;;;;;;;13.77;7.38;;;;;;;9.15;71.56;100371.34;5131700;28;20058;-63
2021/10/17 00:22:37;;;;;;;16.45;7.40;;;;;;;9.13;71.55;100365.25;5115837;28;20134;-63
2021/10/17 00:25:26;;;;;;;13.05;7.28;;;;;;;9.11;71.55;100366.94;5115640;28;20051;-63
2021/10/17 00:28:16;;;;;;;13.88;6.50;;;;;;;9.10;71.63;100370.34;5116090;28;20050;-63
2021/10/17 00:31:03;;;;;;;16.00;7.65;;;;;;;9.08;71.86;100365.16;5131178;28;20077;-62
2021/10/17 00:33:49;;;;;;;13.65;6.93;;;;;;;9.07;71.43;100368.56;5130888;28;20078;-63
2021/10/17 00:36:33;;;;;;;16.63;7.82;;;;;;;9.05;71.53;100367.63;5131120;28;20081;-63
2021/10/17 00:39:18;;;;;;;16.48;6.20;;;;;;;9.05;71.35;100366.75;5131345;28;20140;-63
2021/10/17 00:42:07;;;;;;;19.42;8.05;;;;;;;9.04;71.49;100371.06;5115465;28;20078;-63
2021/10/17 00:44:59;;;;;;;15.68;7.00;;;;;;;9.02;71.25;100358.94;5115609;28;20057;-63
2021/10/17 00:47:44;;;;;;;9.85;7.15;;;;;;;9.02;71.49;100361.53;5131120;28;20072;-63
2021/10/17 00:50:33;;;;;;;15.48;6.85;;;;;;;9.00;71.26;100366.63;5115381;28;20505;-63
2021/10/17 00:53:21;;;;;;;13.85;7.68;;;;;;;8.99;71.25;100362.28;5115495;28;20058;-63
2021/10/17 00:56:06;;;;;;;16.25;7.28;;;;;;;8.98;71.49;100363.13;5115492;28;20046;-63
2021/10/17 00:58:50;;;;;;;11.75;7.43;;;;;;;8.98;71.40;100358.84;5115509;28;20516;-63
2021/10/17 01:01:35;;;;;;;14.68;7.53;;;;;;;8.97;71.34;100361.38;5115220;28;20042;-63
2021/10/17 01:04:28;;;;;;;13.18;5.95;;;;;;;8.96;71.33;100360.50;5112789;28;20074;-63
2021/10/17 01:07:18;;;;;;;15.32;7.03;;;;;;;8.95;71.40;100357.88;5101300;28;20143;-63
2021/10/17 01:10:08;;;;;;;15.57;7.50;;;;;;;8.94;71.27;100358.72;5101593;28;20117;-63
2021/10/17 01:12:52;;;;;;;11.93;6.80;;;;;;;8.93;71.45;100356.97;5116370;28;20054;-63
2021/10/17 01:15:39;;;;;;;12.00;6.53;;;;;;;8.93;71.13;100359.56;5117006;28;20543;-63
2021/10/17 01:18:29;;;;;;;18.13;7.93;;;;;;;8.93;71.44;100356.97;5116716;28;20134;-63
2021/10/17 01:21:13;;;;;;;17.05;7.68;;;;;;;8.91;71.37;100364.66;5101088;28;20051;-63
2021/10/17 01:23:59;;;;;;;12.52;7.97;;;;;;;8.91;71.42;100351.75;5116389;28;20066;-63
2021/10/17 01:26:47;;;;;;;14.95;7.18;;;;;;;8.92;71.31;100352.63;5116505;28;20108;-63
2021/10/17 01:29:31;;;;;;;15.55;7.82;;;;;;;8.90;71.26;100357.75;5116202;28;20415;-63
2021/10/17 01:32:18;;;;;;;12.75;6.88;;;;;;;8.87;71.26;100360.25;5100977;28;20043;-63
2021/10/17 01:35:05;;;;;;;18.75;7.60;;;;;;;8.86;71.36;100348.16;5101215;28;20097;-63
2021/10/17 01:37:55;;;;;;;11.95;6.60;;;;;;;8.86;71.66;100355.03;5100796;28;20069;-63
2021/10/17 01:40:41;;;;;;;17.27;7.72;;;;;;;8.85;71.34;100349.00;5100810;28;20185;-63
2021/10/17 01:43:31;;;;;;;14.43;6.57;;;;;;;8.84;71.26;100342.94;5100642;28;20055;-63
2021/10/17 01:46:15;;;;;;;10.60;7.30;;;;;;;8.85;71.42;100351.59;5115683;28;20047;-63
2021/10/17 01:49:05;;;;;;;;;;;;;;;8.82;71.08;100343.75;5101250;28;20046;-63
2021/10/17 01:51:52;;;;;;;11.35;7.22;;;;;;;8.81;71.08;100347.16;5100922;28;20266;-63
2021/10/17 01:54:39;;;;;;;16.13;7.45;;;;;;;8.78;71.35;100347.06;5100788;28;20109;-62
2021/10/17 01:57:25;;;;;;;12.25;7.43;;;;;;;8.78;71.17;100340.22;5100384;28;20081;-64
2021/10/17 02:00:13;;;;;;;12.27;8.02;;;;;;;8.77;71.10;100337.56;5100650;28;20050;-63
2021/10/17 02:02:57;;;;;;;13.55;7.65;;;;;;;8.76;71.25;100335.81;5115450;28;20525;-63
2021/10/17 02:05:46;;;;;;;12.13;7.53;;;;;;;8.74;71.10;100338.34;5115397;28;20051;-64
2021/10/17 02:08:30;;;;;;;12.75;6.70;;;;;;;8.73;71.46;100335.72;5100282;28;20046;-64
2021/10/17 02:11:17;;;;;;;14.77;8.07;;;;;;;8.71;71.05;100333.09;5115718;28;20105;-64
2021/10/17 02:14:01;;;;;;;11.50;7.50;;;;;;;8.71;71.16;100335.69;5099839;28;20039;-64
2021/10/17 02:16:45;;;;;;;13.25;7.43;;;;;;;8.69;71.07;100332.19;5114644;28;20062;-63
2021/10/17 02:19:32;;;;;;;9.38;6.85;;;;;;;8.70;70.93;100331.34;5100181;28;20047;-64
2021/10/17 02:22:16;;;;;;;12.60;7.07;;;;;;;8.70;71.05;100326.19;5100329;28;20054;-64
2021/10/17 02:25:03;;;;;;;13.02;7.00;;;;;;;8.70;70.93;100328.75;5099595;28;20120;-63
2021/10/17 02:27:48;;;;;;;11.82;8.00;;;;;;;8.69;71.01;100321.84;5099824;28;20414;-63
2021/10/17 02:30:32;;;;;;;10.35;7.30;;;;;;;8.70;71.35;100318.41;5099687;28;20453;-63
2021/10/17 02:33:19;;;;;;;13.18;6.57;;;;;;;8.70;71.15;100315.84;5099971;28;20050;-63
2021/10/17 02:36:09;;;;;;;13.63;8.15;;;;;;;8.70;71.19;100307.22;5115223;28;20100;-63
2021/10/17 02:38:53;;;;;;;13.40;6.93;;;;;;;8.70;71.13;100312.41;5114727;28;20055;-64
2021/10/17 02:41:40;;;;;;;13.38;7.25;;;;;;;8.68;70.94;100318.41;5115062;28;20042;-63
2021/10/17 02:44:26;;;;;;;14.90;7.60;;;;;;;8.70;70.98;100308.09;5115129;28;20062;-63
2021/10/17 02:47:13;;;;;;;14.10;7.55;;;;;;;8.70;71.19;100307.22;5099858;28;20047;-61
2021/10/17 02:49:57;;;;;;;12.68;7.38;;;;;;;8.70;70.99;100302.91;5114890;28;20066;-63
2021/10/17 02:52:44;;;;;;;18.42;9.52;;;;;;;8.70;71.43;100302.06;5114202;28;20085;-63
2021/10/17 02:55:28;;;;;;;20.55;7.15;;;;;;;8.70;71.10;100308.09;5099712;28;20127;-64
2021/10/17 02:58:12;;;;;;;13.45;8.52;;;;;;;8.68;70.94;100312.34;5114781;28;20050;-64
2021/10/17 03:01:01;;;;;;;12.27;7.47;;;;;;;8.66;71.04;100306.25;5114811;28;20086;-63
2021/10/17 03:03:45;;;;;;;14.25;7.25;;;;;;;8.63;70.79;100311.34;5114715;28;20051;-63
2021/10/17 03:06:32;;;;;;;14.18;7.05;;;;;;;8.61;71.00;100306.13;5114408;28;20127;-62
2021/10/17 03:09:16;;;;;;;13.18;6.57;;;;;;;8.60;70.87;100308.66;5114449;28;20054;-61
2021/10/17 03:12:04;;;;;;;15.65;6.57;;;;;;;8.61;70.85;100307.84;5114404;28;20039;-62
2021/10/17 03:14:54;;;;;;;13.93;6.80;;;;;;;8.61;70.99;100302.69;5114020;28;20046;-62
2021/10/17 03:17:38;;;;;;;12.80;6.32;;;;;;;8.61;71.13;100303.53;5114513;28;20096;-61
2021/10/17 03:20:23;;;;;;;14.18;7.38;;;;;;;8.62;70.97;100300.13;5114177;28;20520;-63
2021/10/17 03:23:07;;;;;;;12.00;6.70;;;;;;;8.62;70.83;100301.84;5098842;28;20139;-62
2021/10/17 03:25:57;;;;;;;11.73;7.63;;;;;;;8.59;70.96;100299.16;5113906;28;20402;-63
2021/10/17 03:28:47;;;;;;;11.90;6.85;;;;;;;8.62;70.90;100301.84;5114033;28;20062;-63
2021/10/17 03:31:38;;;;;;;9.48;6.63;;;;;;;8.62;71.00;100307.00;5098647;28;20089;-64
2021/10/17 03:34:22;;;;;;;11.73;7.43;;;;;;;8.61;70.70;100302.69;5098467;28;20082;-64
2021/10/17 03:37:08;;;;;;;11.68;6.70;;;;;;;8.61;71.12;100300.09;5114074;28;20097;-63
2021/10/17 03:39:52;;;;;;;16.90;6.65;;;;;;;8.61;71.24;100302.69;5114049;28;20104;-63
2021/10/17 03:42:41;;;;;;;9.85;6.75;;;;;;;8.61;70.99;100300.09;5114097;28;20045;-61
2021/10/17 03:45:26;;;;;;;13.27;6.20;;;;;;;8.62;71.15;100301.84;5098790;28;20051;-62
2021/10/17 03:48:15;;;;;;;12.30;6.85;;;;;;;8.60;70.97;100308.66;5113585;28;20047;-64
2021/10/17 03:51:01;;;;;;;24.33;6.80;;;;;;;8.56;70.85;100307.72;5098073;28;20517;-62
2021/10/17 03:53:45;;;;;;;15.88;7.38;;;;;;;8.53;70.83;100303.31;5113905;28;20058;-62
2021/10/17 03:56:32;;;;;;;15.93;6.88;;;;;;;8.52;70.75;100313.63;5098459;28;20038;-62
2021/10/17 03:59:19;;;;;;;15.15;8.10;;;;;;;8.49;70.91;100309.22;5098359;28;20560;-62
2021/10/17 04:04:15;;;;;;;10.82;5.97;;;;;;;8.49;70.97;100321.28;5152800;27;20194;-62
2021/10/17 04:07:01;;;;;;;17.35;7.55;;;;;;;8.47;71.20;100320.31;5137346;27;20073;-63
2021/10/17 04:09:48;;;;;;;11.23;6.57;;;;;;;8.48;71.16;100314.34;5137116;27;20106;-63
2021/10/17 04:12:33;;;;;;;13.52;7.07;;;;;;;8.47;70.79;100321.22;5152644;27;20145;-62
2021/10/17 04:15:19;;;;;;;;;;;;;;;8.44;71.13;100321.13;5152813;27;20049;-61
2021/10/17 04:18:04;;;;;;;14.00;6.85;;;;;;;8.43;70.51;100319.38;5137041;27;19922;-61
2021/10/17 04:20:49;;;;;;;14.77;7.60;;;;;;;8.44;70.91;100322.81;5136378;27;20123;-62
2021/10/17 04:23:33;;;;;;;15.43;7.20;;;;;;;8.44;70.97;100321.13;5151915;27;20100;-62
2021/10/17 04:26:19;;;;;;;14.70;7.38;;;;;;;8.44;70.68;100323.69;5151719;27;20100;-62
2021/10/17 04:29:06;;;;;;;14.65;7.38;;;;;;;8.45;70.81;100314.22;5136460;27;20061;-61
2021/10/17 04:31:53;;;;;;;21.35;7.57;;;;;;;8.45;70.79;100311.66;5152366;27;20140;-62
2021/10/17 04:34:40;;;;;;;13.05;6.60;;;;;;;8.48;71.03;100311.78;5135891;27;20073;-62
2021/10/17 04:37:27;;;;;;;14.02;6.43;;;;;;;8.49;70.99;100316.09;5136506;27;20446;-63
2021/10/17 04:40:11;;;;;;;19.83;8.88;;;;;;;8.48;70.79;100317.84;5136137;27;20517;-64
2021/10/17 04:42:59;;;;;;;13.43;6.47;;;;;;;8.48;71.04;100317.84;5151461;27;20107;-62
2021/10/17 04:45:46;;;;;;;12.93;7.85;;;;;;;8.49;71.27;100313.53;5136326;27;20045;-62
2021/10/17 04:48:32;;;;;;;16.02;7.55;;;;;;;8.48;70.88;100314.34;5151538;27;20050;-63
2021/10/17 04:51:19;;;;;;;13.02;7.43;;;;;;;8.48;70.62;100315.25;5136346;27;20053;-61
2021/10/17 04:54:09;;;;;;;14.70;7.25;;;;;;;8.48;70.86;100316.94;5151177;27;20049;-62
2021/10/17 04:56:55;;;;;;;14.02;6.57;;;;;;;8.47;71.25;100318.63;5136116;27;20170;-62
2021/10/17 04:59:40;;;;;;;11.43;7.22;;;;;;;8.47;71.11;100312.56;5135465;27;20042;-62
2021/10/17 05:02:24;;;;;;;14.27;7.40;;;;;;;8.47;70.94;100312.56;5151456;27;20073;-62
2021/10/17 05:05:08;;;;;;;17.05;6.95;;;;;;;8.46;71.10;100318.56;5151586;27;20107;-62
2021/10/17 05:07:55;;;;;;;;;;;;;;;8.43;70.84;100303.88;5136513;27;20130;-62
2021/10/17 05:10:42;;;;;;;13.30;6.97;;;;;;;8.42;70.72;100309.84;5165188;27;19918;-62
2021/10/17 05:13:31;;;;;;;12.75;6.75;;;;;;;8.41;70.71;100308.09;5150047;27;20049;-62
2021/10/17 05:16:18;;;;;;;10.43;6.90;;;;;;;8.40;70.93;100305.50;5122038;27;20046;-62
2021/10/17 05:19:04;;;;;;;19.75;7.55;;;;;;;8.40;70.71;100308.06;5137306;27;20107;-62
2021/10/17 05:21:59;;;;;;;8.70;6.13;;;;;;;8.40;70.75;100308.94;5083169;27;2037458;-64
2021/10/17 05:24:42;;;;;;;14.02;5.60;;;;;;;8.38;71.06;100306.31;5116376;28;20555;-63
2021/10/17 05:27:32;;;;;;;12.60;6.53;;;;;;;8.38;70.99;100308.00;5131897;28;20046;-62
2021/10/17 05:30:16;;;;;;;10.88;5.97;;;;;;;8.36;70.90;100301.91;5132089;28;20058;-62
2021/10/17 05:33:03;;;;;;;11.95;6.72;;;;;;;8.36;70.80;100307.97;5131468;28;20084;-61
2021/10/17 05:35:49;;;;;;;14.13;7.25;;;;;;;8.35;70.74;100300.16;5116308;28;20160;-61
2021/10/17 05:38:39;;;;;;;12.40;7.32;;;;;;;8.35;70.92;100306.22;5116419;28;20394;-62
2021/10/17 05:41:28;;;;;;;15.77;7.80;;;;;;;8.37;70.89;100308.84;5116023;28;20076;-62
2021/10/17 05:44:17;;;;;;;11.02;5.80;;;;;;;8.37;70.89;100314.00;5115965;28;20069;-62
2021/10/17 05:47:01;;;;;;;20.05;6.68;;;;;;;8.37;70.78;100319.16;5115648;28;20513;-62
2021/10/17 05:49:51;;;;;;;9.80;5.55;;;;;;;8.36;70.89;100313.16;5116141;28;20058;-64
2021/10/17 05:52:35;;;;;;;15.52;7.13;;;;;;;8.36;70.86;100320.00;5115947;28;20046;-63
2021/10/17 05:55:21;;;;;;;;;;;;;;;8.34;70.69;100319.06;5116066;28;20043;-64
2021/10/17 05:58:06;;;;;;;13.27;5.70;;;;;;;8.34;70.88;100321.66;5131488;28;19919;-61
2021/10/17 06:00:55;;;;;;;12.13;6.65;;;;;;;8.33;70.67;100322.53;5130962;28;20050;-62
2021/10/17 06:03:42;;;;;;;12.07;6.30;;;;;;;8.33;71.03;100336.28;5131472;28;20112;-61
2021/10/17 06:06:29;;;;;;;13.98;6.32;;;;;;;8.32;70.83;100341.41;5130833;28;20054;-64
2021/10/17 06:09:14;;;;;;;13.30;6.07;;;;;;;8.31;70.99;100335.38;5131258;28;20073;-64
2021/10/17 06:11:57;;;;;;;8.75;5.88;;;;;;;8.31;70.84;100335.38;5130763;28;20151;-63
2021/10/17 06:14:47;;;;;;;11.07;6.22;;;;;;;8.31;71.10;100339.66;5131026;28;20418;-63
2021/10/17 06:17:37;;;;;;;19.00;5.97;;;;;;;8.31;70.80;100345.69;5115327;28;20051;-61
2021/10/17 06:20:26;;;;;;;8.35;6.18;;;;;;;8.32;70.87;100347.44;5115347;28;20054;-63
2021/10/17 06:23:16;;;;;;;12.45;6.75;;;;;;;8.33;71.11;100350.94;5131034;28;20090;-61
2021/10/17 06:26:00;;;;;;;13.50;6.72;;;;;;;8.32;71.04;100352.63;5115358;28;20065;-64
2021/10/17 06:28:52;;;;;;;11.82;6.15;;;;;;;8.32;70.89;100352.63;5114913;28;20039;-63
2021/10/17 06:31:37;;;;;;;13.05;6.53;;;;;;;8.31;70.91;100355.16;5126341;28;20058;-63
2021/10/17 06:34:26;;;;;;;12.13;6.35;;;;;;;8.30;70.96;100354.28;5116791;28;20038;-64
2021/10/17 06:37:10;;;;;;;10.18;6.45;;;;;;;8.28;70.76;100353.34;5117127;28;20100;-64
2021/10/17 06:39:57;;;;;;;;;;;;;;;8.28;70.93;100365.41;5116850;28;20407;-63
2021/10/17 06:42:44;;;;;;;11.27;5.50;;;;;;;8.29;70.66;100352.53;5101611;28;20320;-63
2021/10/17 06:45:28;;;;;;;13.30;6.82;;;;;;;8.29;70.60;100351.66;5101242;28;20041;-64
2021/10/17 06:48:12;;;;;;;11.27;6.80;;;;;;;8.30;70.88;100356.00;5116881;28;20042;-63
2021/10/17 06:51:01;;;;;;;23.05;7.63;;;;;;;8.31;71.13;100360.34;5116716;28;20189;-63
2021/10/17 06:53:45;;;;;;;9.30;5.88;;;;;;;8.31;70.95;100362.91;5100937;28;20042;-63
2021/10/17 06:56:34;;;;;;;8.40;5.45;;;;;;;8.32;71.07;100367.25;5116471;28;20107;-63
2021/10/17 06:59:22;;;;;;;9.77;6.15;;;;;;;8.31;70.90;100365.50;5100883;28;20104;-63
2021/10/17 07:02:06;;;;;;;9.80;5.70;;;;;;;8.33;71.11;100374.16;5116110;28;20097;-63
2021/10/17 07:04:50;;;;;;;13.20;7.45;;;;;;;8.31;70.92;100370.66;5116610;28;20050;-64
2021/10/17 07:07:33;;;;;;;13.98;6.45;;;;;;;8.29;70.74;100377.47;5116600;28;20069;-63
2021/10/17 07:10:21;;;;;;;12.90;7.22;;;;;;;8.27;70.75;100381.72;5100421;28;20109;-62
2021/10/17 07:13:07;;;;;;;13.57;7.15;;;;;;;8.27;70.59;100387.75;5100492;28;20058;-64
2021/10/17 07:15:52;;;;;;;13.13;6.35;;;;;;;8.25;70.93;100376.53;5115940;28;20046;-63
2021/10/17 07:18:36;;;;;;;;;;;;;;;8.25;70.78;100380.78;5116129;28;20152;-63
2021/10/17 07:21:20;;;;;;;10.10;6.38;;;;;;;8.27;70.71;100382.56;5115716;28;19923;-64
2021/10/17 07:24:04;;;;;;;14.90;6.65;;;;;;;8.26;70.68;100373.06;5115751;28;20418;-63
2021/10/17 07:26:50;;;;;;;11.27;6.63;;;;;;;8.26;70.80;100378.25;5100263;28;20089;-64
2021/10/17 07:29:34;;;;;;;12.88;7.28;;;;;;;8.25;70.94;100373.03;5115936;28;20455;-63
2021/10/17 07:32:21;;;;;;;9.80;5.40;;;;;;;8.27;70.95;100376.56;5115530;28;20127;-63
2021/10/17 07:35:08;;;;;;;10.00;6.30;;;;;;;8.26;71.10;100378.25;5115502;28;20042;-63
2021/10/17 07:37:57;;;;;;;12.82;7.40;;;;;;;8.27;70.87;100380.00;5100059;28;20165;-63
2021/10/17 07:40:41;;;;;;;12.02;6.85;;;;;;;8.28;70.76;100381.75;5115471;28;20047;-64
2021/10/17 07:43:31;;;;;;;10.27;7.15;;;;;;;8.30;70.95;100381.81;5114621;28;20051;-64
2021/10/17 07:46:18;;;;;;;13.43;7.65;;;;;;;8.32;71.04;100393.06;5100385;28;20051;-64
2021/10/17 07:49:07;;;;;;;10.63;6.63;;;;;;;8.33;70.91;100387.09;5100212;28;20118;-63
2021/10/17 07:51:57;;;;;;;14.52;6.68;;;;;;;8.34;70.82;100386.22;5099608;28;20112;-64
2021/10/17 07:54:50;;;;;;;10.10;6.28;;;;;;;8.34;70.95;100387.13;5099869;28;20513;-63
2021/10/17 07:57:51;;;;;;;15.70;7.22;;;;;;;8.35;70.89;100386.28;5099631;28;20572;-64
2021/10/17 08:00:37;;;;;;;9.13;6.78;;;;;;;8.37;71.21;100384.63;5099613;28;20063;-63
2021/10/17 08:03:21;;;;;;;11.25;6.18;;;;;;;8.38;71.27;100383.81;5114686;28;20105;-64
2021/10/17 08:06:07;;;;;;;11.80;6.75;;;;;;;8.41;70.94;100379.56;5115052;28;20461;-63
2021/10/17 08:08:53;;;;;;;12.10;7.43;;;;;;;8.42;71.10;100383.88;5099517;28;20089;-64
2021/10/17 08:11:40;;;;;;;13.90;6.57;;;;;;;8.44;71.09;100387.38;5115222;28;20058;-64
2021/10/17 08:14:28;;;;;;;16.45;6.97;;;;;;;8.46;71.37;100381.44;5114730;28;20169;-63
2021/10/17 08:17:12;;;;;;;15.45;6.65;;;;;;;8.49;71.09;100383.28;5099638;28;20047;-64
2021/10/17 08:20:02;;;;;;;10.55;7.28;;;;;;;8.51;71.28;100387.66;5114218;28;20155;-64
2021/10/17 08:22:51;;;;;;;11.20;6.50;;;;;;;8.53;71.24;100388.56;5114540;28;20069;-64
2021/10/17 08:25:38;;;;;;;13.73;7.25;;;;;;;8.58;71.33;100395.59;5114643;28;20134;-63
2021/10/17 08:28:30;;;;;;;10.60;6.57;;;;;;;8.61;71.18;100399.13;5114657;28;20069;-63
2021/10/17 08:31:17;;;;;;;12.02;7.07;;;;;;;8.61;71.27;100398.28;5099747;28;20096;-63
2021/10/17 08:34:01;;;;;;;10.90;6.10;;;;;;;8.62;71.18;100393.13;5114752;28;20176;-63
2021/10/17 08:36:47;;;;;;;10.20;6.75;;;;;;;8.65;71.40;100392.34;5114450;28;20123;-61
2021/10/17 08:40:27;;;;;;;9.43;5.47;;;;;;;8.67;71.28;100386.41;5084918;27;1979544;-63
2021/10/17 08:43:14;;;;;;;11.30;6.13;;;;;;;8.70;71.27;100385.59;5131453;28;20164;-62
2021/10/17 08:45:59;;;;;;;15.15;8.13;;;;;;;8.71;71.40;100386.50;5131766;28;20045;-64
2021/10/17 08:48:57;;;;;;;10.02;6.40;;;;;;;8.74;71.06;100386.56;5116252;28;20131;-64
2021/10/17 08:51:49;;;;;;;8.60;5.72;;;;;;;8.76;71.41;100382.31;5116472;28;20524;-63
2021/10/17 08:54:33;;;;;;;10.10;6.85;;;;;;;8.77;71.48;100377.22;5116237;28;20050;-63
2021/10/17 08:57:18;;;;;;;9.70;6.85;;;;;;;8.79;71.17;100383.31;5131530;28;20134;-63
2021/10/17 09:00:26;;;;;;;12.85;7.95;;;;;;;8.81;71.34;100383.34;5115919;28;20047;-63
2021/10/17 09:03:10;;;;;;;9.00;5.97;;;;;;;8.83;71.51;100382.53;5129195;28;20519;-63
2021/10/17 09:05:57;;;;;;;9.23;5.88;;;;;;;8.84;71.15;100376.53;5131251;28;20047;-63
2021/10/17 09:08:41;;;;;;;7.72;5.38;;;;;;;8.88;71.27;100376.63;5131412;28;20092;-63
2021/10/17 09:11:57;;;;;;;9.23;5.45;;;;;;;8.91;71.25;100375.00;5131650;28;20562;-63
2021/10/17 09:14:44;;;;;;;11.10;5.80;;;;;;;8.91;71.22;100387.94;5124155;28;20042;-63
2021/10/17 09:17:29;;;;;;;13.15;6.80;;;;;;;8.92;71.28;100376.75;5131100;28;20131;-63
2021/10/17 09:20:17;;;;;;;11.98;6.10;;;;;;;8.93;71.41;100383.69;5115210;28;20047;-63
2021/10/17 09:23:03;;;;;;;9.27;5.85;;;;;;;8.95;71.37;100382.03;5131119;28;20058;-63
2021/10/17 09:25:51;;;;;;;8.60;5.80;;;;;;;8.97;71.38;100382.06;5115500;28;20042;-63
2021/10/17 09:28:39;;;;;;;10.68;6.13;;;;;;;8.98;71.49;100383.81;5115357;28;20058;-63
2021/10/17 09:31:25;;;;;;;12.30;5.95;;;;;;;8.99;71.15;100376.09;5115385;28;20042;-63
2021/10/17 09:34:09;;;;;;;6.70;5.00;;;;;;;9.01;71.30;100375.28;5115732;28;20096;-63
2021/10/17 09:37:14;;;;;;;9.15;5.57;;;;;;;9.04;71.32;100376.22;5130657;28;20092;-63
2021/10/17 09:40:05;;;;;;;8.95;5.55;;;;;;;9.06;71.37;100381.44;5130686;28;20061;-63
2021/10/17 09:43:05;;;;;;;9.18;5.60;;;;;;;9.05;71.21;100385.75;5115157;28;20043;-63
2021/10/17 09:45:49;;;;;;;11.35;6.00;;;;;;;9.07;71.19;100378.91;5130162;28;20100;-63
2021/10/17 09:48:33;;;;;;;;;;;;;;;9.07;71.33;100381.50;5115751;28;20414;-63
2021/10/17 09:51:23;;;;;;;9.30;6.28;;;;;;;9.08;71.27;100375.50;5120274;28;19923;-63
2021/10/17 09:54:07;;;;;;;8.48;5.35;;;;;;;9.10;71.05;100383.28;5101162;28;20138;-63
2021/10/17 09:56:51;;;;;;;7.88;5.45;;;;;;;9.11;71.43;100382.44;5116582;28;20138;-63
2021/10/17 09:59:36;;;;;;;8.98;5.63;;;;;;;9.10;71.26;100383.28;5100924;28;20509;-63
2021/10/17 10:02:20;;;;;;;8.68;5.13;;;;;;;9.12;71.32;100381.63;5101553;28;20239;-63
2021/10/17 10:05:05;;;;;;;8.20;5.35;;;;;;;9.13;71.36;100379.06;5116508;28;20122;-63
2021/10/17 10:07:51;;;;;;;9.20;5.25;;;;;;;9.16;71.22;100377.38;5101267;28;20088;-63
2021/10/17 10:10:38;;;;;;;6.93;5.15;;;;;;;9.16;71.33;100383.47;5116139;28;20481;-63
2021/10/17 10:13:25;;;;;;;9.73;5.30;;;;;;;9.19;71.09;100383.50;5100785;28;20084;-63
2021/10/17 10:16:13;;;;;;;8.98;5.43;;;;;;;9.20;71.22;100387.00;5116596;28;20459;-63
2021/10/17 10:19:04;;;;;;;7.63;4.97;;;;;;;9.22;71.18;100393.94;5100810;28;20042;-63
2021/10/17 10:21:51;;;;;;;8.98;5.20;;;;;;;9.22;71.29;100393.94;5101341;28;20082;-63
2021/10/17 10:24:36;;;;;;;11.75;5.80;;;;;;;9.23;71.26;100403.47;5101101;28;20398;-63
2021/10/17 10:27:25;;;;;;;;;;;;;;;9.23;71.34;100402.59;5116520;28;20108;-63
2021/10/17 10:30:19;;;;;;;13.07;6.10;;;;;;;9.24;71.20;100406.94;5101215;28;19954;-62
2021/10/17 10:33:06;;;;;;;10.90;5.60;;;;;;;9.25;71.30;100400.94;5116292;28;20046;-63
2021/10/17 10:35:59;;;;;;;9.52;6.07;;;;;;;9.26;71.51;100403.56;5100840;28;20088;-63
2021/10/17 10:38:52;;;;;;;10.05;6.70;;;;;;;9.27;71.25;100397.53;5115482;28;20093;-63
2021/10/17 10:41:48;;;;;;;8.55;5.53;;;;;;;9.29;71.51;100395.88;5115774;28;20051;-63
2021/10/17 10:44:35;;;;;;;8.15;4.60;;;;;;;9.32;71.42;100394.22;5100726;28;20092;-63
2021/10/17 10:47:28;;;;;;;8.98;5.97;;;;;;;9.34;71.14;100393.41;5100154;28;20046;-63
2021/10/17 10:50:14;;;;;;;7.47;5.13;;;;;;;9.34;71.37;100393.41;5100479;28;20474;-63
2021/10/17 10:52:58;;;;;;;8.45;5.18;;;;;;;9.37;71.45;100396.09;5100547;28;20563;-63
2021/10/17 10:55:51;;;;;;;8.55;5.18;;;;;;;9.39;71.46;100394.41;5131951;27;20260;-62
2021/10/17 10:58:53;;;;;;;7.85;5.22;;;;;;;9.40;71.51;100403.03;5131217;27;20050;-61
2021/10/17 11:01:58;;;;;;;11.32;5.78;;;;;;;9.39;71.39;100390.94;5130950;28;20525;-63
2021/10/17 11:04:44;;;;;;;8.15;5.53;;;;;;;9.39;71.29;100399.59;5130716;28;20094;-62
2021/10/17 11:07:33;;;;;;;6.93;5.30;;;;;;;9.39;71.57;100393.53;5130930;28;20065;-64
2021/10/17 11:10:23;;;;;;;11.63;5.90;;;;;;;9.38;71.43;100390.06;5130532;28;20564;-63
2021/10/17 11:13:13;;;;;;;9.48;5.53;;;;;;;9.39;71.22;100391.81;5131484;28;20045;-63
2021/10/17 11:16:00;;;;;;;9.25;5.88;;;;;;;9.39;71.23;100394.41;5131524;28;20046;-61
2021/10/17 11:18:44;;;;;;;7.25;5.47;;;;;;;9.43;71.18;100393.63;5130400;28;20046;-61
2021/10/17 11:21:34;;;;;;;8.65;5.50;;;;;;;9.44;71.52;100392.81;5130965;28;20050;-61
2021/10/17 11:24:19;;;;;;;9.93;5.90;;;;;;;9.45;71.50;100391.13;5130646;27;20058;-61
2021/10/17 11:27:13;;;;;;;9.70;5.35;;;;;;;9.45;72.01;100391.13;5130683;28;20042;-62
2021/10/17 11:30:00;;;;;;;9.70;6.03;;;;;;;9.45;71.33;100383.34;5131104;28;20090;-63
2021/10/17 11:32:47;;;;;;;6.82;5.10;;;;;;;9.45;71.60;100389.38;5131527;27;20100;-63
2021/10/17 11:35:35;;;;;;;9.55;5.32;;;;;;;9.45;71.41;100391.97;5130805;28;20598;-63
2021/10/17 11:38:18;;;;;;;10.35;6.15;;;;;;;9.47;71.26;100391.13;5130139;28;20563;-63
2021/10/17 11:41:11;;;;;;;7.32;5.32;;;;;;;9.47;71.39;100396.31;5131043;28;20050;-63
2021/10/17 11:43:58;;;;;;;6.63;4.93;;;;;;;9.45;71.63;100393.69;5131327;28;20054;-63
2021/10/17 11:46:42;;;;;;;10.98;5.57;;;;;;;9.45;71.47;100389.38;5129838;28;20078;-63
2021/10/17 11:49:27;;;;;;;10.40;6.15;;;;;;;9.46;71.71;100390.28;5130152;27;20097;-63
2021/10/17 11:52:12;;;;;;;7.93;5.13;;;;;;;9.47;71.44;100385.97;5130407;28;20046;-63
2021/10/17 11:54:56;;;;;;;;;;;;;;;9.46;71.33;100387.69;5130828;28;20050;-63
2021/10/17 11:57:40;;;;;;;7.07;4.82;;;;;;;9.45;71.40;100376.44;5130038;28;19923;-63
2021/10/17 12:00:30;;;;;;;7.18;5.40;;;;;;;9.46;71.34;100377.34;5130677;28;20046;-63
2021/10/17 12:03:20;;;;;;;8.38;5.47;;;;;;;9.45;71.68;100376.44;5130616;28;20054;-63
2021/10/17 12:06:04;;;;;;;10.13;5.80;;;;;;;9.48;71.62;100369.59;5122656;28;20595;-63
2021/10/17 12:08:54;;;;;;;8.25;5.22;;;;;;;9.50;71.72;100370.53;5115692;28;20070;-63
2021/10/17 12:11:39;;;;;;;7.70;5.05;;;;;;;9.51;71.67;100367.09;5116127;28;20050;-63
2021/10/17 12:14:31;;;;;;;8.95;5.30;;;;;;;9.51;71.52;100365.38;5115317;28;20508;-63
2021/10/17 12:17:18;;;;;;;10.05;5.65;;;;;;;9.52;71.48;100364.53;5115561;28;20046;-63
2021/10/17 12:20:11;;;;;;;7.45;5.25;;;;;;;9.52;71.68;100361.09;5115572;28;20095;-63
2021/10/17 12:22:55;;;;;;;10.80;5.97;;;;;;;9.52;71.42;100359.38;5115352;28;20115;-63
2021/10/17 12:25:48;;;;;;;9.02;6.00;;;;;;;9.53;71.71;100361.13;5116250;28;20078;-63
2021/10/17 12:28:37;;;;;;;8.02;5.07;;;;;;;9.54;71.66;100356.84;5115396;28;20549;-63
2021/10/17 12:31:35;;;;;;;12.73;5.95;;;;;;;9.53;71.60;100350.78;5116710;28;20402;-63
2021/10/17 12:34:38;;;;;;;8.50;5.47;;;;;;;9.54;71.50;100344.75;5116382;28;20051;-63
2021/10/17 12:37:29;;;;;;;8.65;5.95;;;;;;;9.57;71.71;100350.03;5116265;28;20043;-63
2021/10/17 12:40:13;;;;;;;10.23;5.88;;;;;;;9.60;71.58;100354.38;5115593;28;20131;-63
2021/10/17 12:43:02;;;;;;;;;;;;;;;9.58;71.65;100345.69;5116897;28;20119;-64
2021/10/17 12:45:47;;;;;;;15.13;5.47;;;;;;;9.59;71.47;100343.16;5114933;28;20010;-63
2021/10/17 12:48:43;;;;;;;9.73;6.03;;;;;;;9.61;71.48;100343.19;5115426;28;20046;-63
2021/10/17 12:51:34;;;;;;;11.27;6.93;;;;;;;9.65;71.59;100339.00;5115894;28;20047;-63
2021/10/17 12:54:33;;;;;;;10.10;6.60;;;;;;;9.64;71.64;100343.28;5115558;28;20142;-63
2021/10/17 12:57:17;;;;;;;12.48;6.03;;;;;;;9.64;71.66;100345.88;5116122;28;20497;-63
2021/10/17 13:00:04;;;;;;;9.02;6.30;;;;;;;9.65;71.53;100336.41;5115954;28;20116;-63
2021/10/17 13:02:56;;;;;;;10.63;5.40;;;;;;;9.65;71.61;100334.69;5116148;28;20062;-63
2021/10/17 13:05:56;;;;;;;12.77;7.15;;;;;;;9.68;71.72;100336.47;5115685;28;20046;-62